Time;durP1;ratioP1;P1;durP2;ratioP2;P2;SDS_P1;SDS_P2;PMS_P1;PMS_P2;Temp;Humidity;BMP_temperature;BMP_pressure;BME280_temperature;BME280_humidity;BME280_pressure;Samples;Min_cycle;Max_cycle;Signal;HPM_P1;HPM_P2
2022/04/08 00:01:01;;;;;;;0.00;0.00;;;9.80;99.90;;;;;;4878594;29;20085;-66
2022/04/08 00:03:29;;;;;;;1.45;0.00;;;9.80;99.90;;;;;;4872067;29;20421;-66
2022/04/08 00:05:57;;;;;;;0.00;0.00;;;9.70;99.90;;;;;;4879404;29;20089;-66
2022/04/08 00:08:24;;;;;;;0.00;0.00;;;9.70;99.90;;;;;;4877613;29;20068;-66
2022/04/08 00:10:50;;;;;;;0.20;0.05;;;9.70;99.90;;;;;;4878624;29;20048;-66
2022/04/08 00:13:18;;;;;;;0.93;0.10;;;9.70;99.90;;;;;;4879120;29;20053;-66
2022/04/08 00:15:44;;;;;;;0.60;0.00;;;9.60;99.90;;;;;;4879292;29;20041;-66
2022/04/08 00:18:12;;;;;;;0.10;0.10;;;9.60;99.90;;;;;;4878472;29;20089;-66
2022/04/08 00:20:39;;;;;;;2.17;0.10;;;9.50;99.90;;;;;;4878598;29;20045;-66
2022/04/08 00:23:06;;;;;;;0.00;0.00;;;9.50;99.90;;;;;;4879005;29;20546;-66
2022/04/08 00:25:33;;;;;;;0.00;0.00;;;9.50;99.90;;;;;;4878898;29;20566;-66
2022/04/08 00:27:59;;;;;;;0.20;0.10;;;9.40;99.90;;;;;;4878410;29;20539;-65
2022/04/08 00:30:26;;;;;;;0.70;0.08;;;9.40;99.90;;;;;;4877125;29;20540;-65
2022/04/08 00:32:57;;;;;;;0.00;0.00;;;9.30;99.90;;;;;;4879088;29;20045;-66
2022/04/08 00:35:24;;;;;;;0.10;0.03;;;9.30;99.90;;;;;;4878357;29;20098;-66
2022/04/08 00:37:51;;;;;;;;;;;9.30;99.90;;;;;;4879004;29;20444;-66
2022/04/08 00:40:18;;;;;;;1.88;0.13;;;9.30;99.90;;;;;;4878214;29;19923;-66
2022/04/08 00:42:44;;;;;;;0.00;0.00;;;9.30;99.90;;;;;;4878229;29;20041;-67
2022/04/08 00:45:11;;;;;;;2.63;0.08;;;9.20;99.90;;;;;;4878536;29;20105;-67
2022/04/08 00:47:41;;;;;;;3.63;0.10;;;9.20;99.90;;;;;;4878635;29;20110;-66
2022/04/08 00:50:09;;;;;;;0.15;0.00;;;9.20;99.90;;;;;;4877792;29;20056;-67
2022/04/08 00:52:36;;;;;;;1.45;0.10;;;9.10;99.90;;;;;;4878352;29;20060;-67
2022/04/08 00:55:04;;;;;;;0.00;0.00;;;9.10;99.90;;;;;;4878652;29;20124;-67
2022/04/08 00:57:33;;;;;;;0.40;0.10;;;9.10;99.90;;;;;;4877051;29;20113;-67
2022/04/08 01:00:08;;;;;;;3.90;1.08;;;9.00;99.90;;;;;;4875539;29;20562;-67
2022/04/08 01:02:35;;;;;;;1.92;1.10;;;8.90;99.90;;;;;;4859793;29;20090;-67
2022/04/08 01:05:03;;;;;;;3.47;0.90;;;8.90;99.90;;;;;;4859934;29;20092;-67
2022/04/08 01:07:30;;;;;;;;;;;9.00;99.90;;;;;;4871460;29;20089;-67
2022/04/08 01:09:58;;;;;;;0.50;0.30;;;9.00;99.90;;;;;;4877907;29;19932;-67
2022/04/08 01:12:24;;;;;;;0.45;0.22;;;9.00;99.90;;;;;;4877975;29;20494;-67
2022/04/08 01:14:59;;;;;;;1.00;0.17;;;9.00;99.90;;;;;;4877781;29;20041;-67
2022/04/08 01:17:26;;;;;;;0.00;0.00;;;9.00;99.90;;;;;;4877943;29;20451;-67
2022/04/08 01:19:53;;;;;;;0.20;0.05;;;9.00;99.90;;;;;;4877802;29;20048;-67
2022/04/08 01:22:20;;;;;;;0.25;0.10;;;9.00;99.90;;;;;;4877943;29;20112;-67
2022/04/08 01:24:49;;;;;;;0.00;0.00;;;9.10;99.90;;;;;;4877645;29;20056;-65
2022/04/08 01:27:19;;;;;;;3.00;0.25;;;9.00;99.90;;;;;;4877804;29;20100;-67
2022/04/08 01:29:47;;;;;;;0.50;0.08;;;9.00;99.90;;;;;;4877644;29;20097;-67
2022/04/08 01:32:15;;;;;;;0.20;0.05;;;9.00;99.90;;;;;;4877438;29;20049;-67
2022/04/08 01:34:44;;;;;;;0.20;0.10;;;9.10;99.90;;;;;;4877931;29;20049;-67
2022/04/08 01:37:11;;;;;;;0.20;0.10;;;9.00;99.90;;;;;;4877963;29;20426;-67
2022/04/08 01:39:37;;;;;;;0.30;0.20;;;9.00;99.90;;;;;;4877817;29;20064;-67
2022/04/08 01:42:04;;;;;;;1.27;0.10;;;8.90;99.90;;;;;;4875053;29;20518;-66
2022/04/08 01:44:31;;;;;;;0.47;0.03;;;9.00;99.90;;;;;;4877961;29;20451;-66
2022/04/08 01:46:58;;;;;;;0.20;0.00;;;8.90;99.90;;;;;;4877686;29;20049;-66
2022/04/08 01:49:25;;;;;;;0.13;0.00;;;8.90;99.90;;;;;;4877735;29;20450;-66
2022/04/08 01:51:51;;;;;;;0.20;0.10;;;8.90;99.90;;;;;;4877157;29;20045;-66
2022/04/08 01:54:18;;;;;;;0.20;0.00;;;8.90;99.90;;;;;;4877498;29;20052;-67
2022/04/08 01:56:45;;;;;;;0.32;0.00;;;8.90;99.90;;;;;;4879614;29;20096;-66
2022/04/08 01:59:11;;;;;;;0.22;0.00;;;8.80;99.90;;;;;;4881074;29;20056;-66
2022/04/08 02:01:38;;;;;;;0.10;0.00;;;8.80;99.90;;;;;;4881112;29;20057;-66
2022/04/08 02:04:05;;;;;;;0.32;0.05;;;8.70;99.90;;;;;;4881581;29;20064;-66
2022/04/08 02:06:34;;;;;;;1.40;0.10;;;8.70;99.90;;;;;;4880758;29;20052;-66
2022/04/08 02:09:01;;;;;;;0.00;0.00;;;8.70;99.90;;;;;;4881377;29;20057;-66
2022/04/08 02:11:28;;;;;;;0.00;0.00;;;8.70;99.90;;;;;;4862336;29;20495;-66
2022/04/08 02:13:55;;;;;;;0.50;0.10;;;8.60;99.90;;;;;;4862646;29;20514;-66
2022/04/08 02:16:21;;;;;;;0.38;0.10;;;8.50;99.90;;;;;;4878845;29;20060;-66
2022/04/08 02:18:48;;;;;;;0.20;0.03;;;8.50;99.90;;;;;;4881182;29;20052;-66
2022/04/08 02:21:19;;;;;;;0.22;0.08;;;8.50;99.90;;;;;;4880949;29;20113;-66
2022/04/08 02:23:47;;;;;;;0.00;0.00;;;8.40;99.90;;;;;;4875603;29;20052;-66
2022/04/08 02:26:16;;;;;;;0.65;0.10;;;8.40;99.90;;;;;;4879409;29;20053;-66
2022/04/08 02:28:44;;;;;;;0.38;0.10;;;8.50;99.90;;;;;;4880890;29;20491;-66
2022/04/08 02:31:11;;;;;;;0.10;0.00;;;8.50;99.90;;;;;;4880713;29;20071;-66
2022/04/08 02:33:37;;;;;;;0.00;0.00;;;8.40;99.90;;;;;;4880664;29;20048;-66
2022/04/08 02:36:06;;;;;;;0.10;0.10;;;8.30;99.90;;;;;;4880875;29;20118;-66
2022/04/08 02:38:32;;;;;;;0.10;0.00;;;8.30;99.90;;;;;;4880743;29;20573;-66
2022/04/08 02:40:59;;;;;;;0.13;0.10;;;8.20;99.90;;;;;;4880364;29;20056;-66
2022/04/08 02:43:26;;;;;;;0.00;0.00;;;8.20;99.90;;;;;;4875105;29;20040;-66
2022/04/08 02:45:52;;;;;;;1.45;0.00;;;8.30;99.90;;;;;;4880594;29;20037;-66
2022/04/08 02:48:19;;;;;;;1.30;0.20;;;8.20;99.90;;;;;;4880755;29;20041;-66
2022/04/08 02:50:46;;;;;;;0.00;0.00;;;8.20;99.90;;;;;;4879886;29;20048;-66
2022/04/08 02:53:13;;;;;;;0.00;0.00;;;8.20;99.90;;;;;;4880598;29;20051;-66
2022/04/08 02:55:39;;;;;;;0.90;0.00;;;8.30;99.90;;;;;;4880343;29;20041;-65
2022/04/08 02:58:06;;;;;;;0.10;0.00;;;8.30;99.90;;;;;;4880651;29;20049;-66
2022/04/08 03:00:33;;;;;;;0.45;0.03;;;8.40;99.90;;;;;;4879737;29;20085;-66
2022/04/08 03:03:00;;;;;;;0.13;0.00;;;8.50;99.90;;;;;;4880419;29;20083;-66
2022/04/08 03:05:27;;;;;;;0.15;0.10;;;8.60;99.90;;;;;;4861739;29;20132;-66
2022/04/08 03:07:53;;;;;;;0.10;0.10;;;8.60;99.90;;;;;;4860625;29;20468;-66
2022/04/08 03:10:20;;;;;;;0.00;0.00;;;8.60;99.90;;;;;;4871299;29;20988;-66
2022/04/08 03:12:47;;;;;;;0.75;0.00;;;8.60;99.90;;;;;;4880206;29;20048;-66
2022/04/08 03:15:14;;;;;;;0.90;0.10;;;8.60;99.90;;;;;;4880567;29;20148;-66
2022/04/08 03:17:40;;;;;;;0.05;0.00;;;8.60;99.90;;;;;;4879575;29;20069;-66
2022/04/08 03:20:08;;;;;;;0.20;0.10;;;8.60;99.90;;;;;;4879783;29;20047;-66
2022/04/08 03:22:35;;;;;;;0.80;0.00;;;8.60;99.90;;;;;;4880083;29;20064;-66
2022/04/08 03:25:02;;;;;;;0.77;0.08;;;8.50;99.90;;;;;;4880289;29;20060;-66
2022/04/08 03:27:29;;;;;;;;;;;8.50;99.90;;;;;;4879665;29;20048;-66
2022/04/08 03:29:56;;;;;;;3.50;0.00;;;8.50;99.90;;;;;;4879670;29;20414;-66
2022/04/08 03:32:23;;;;;;;1.20;0.10;;;8.50;99.90;;;;;;4879286;29;20052;-66
2022/04/08 03:34:57;;;;;;;0.28;0.10;;;8.40;99.90;;;;;;4879367;29;20176;-66
2022/04/08 03:37:27;;;;;;;0.45;0.20;;;8.40;99.90;;;;;;4878840;29;21256;-66
2022/04/08 03:39:54;;;;;;;0.98;0.20;;;8.40;99.90;;;;;;4876857;29;20052;-66
2022/04/08 03:42:21;;;;;;;1.58;0.32;;;8.30;99.90;;;;;;4879638;29;20064;-67
2022/04/08 03:44:51;;;;;;;1.55;0.55;;;8.20;99.90;;;;;;4878901;29;20554;-66
2022/04/08 03:47:21;;;;;;;1.73;0.20;;;8.00;99.90;;;;;;4879329;29;20076;-66
2022/04/08 03:49:48;;;;;;;0.88;0.30;;;8.00;99.90;;;;;;4879125;29;20052;-66
2022/04/08 03:52:15;;;;;;;0.32;0.30;;;7.90;99.90;;;;;;4879521;29;20052;-66
2022/04/08 03:54:42;;;;;;;1.15;0.30;;;7.90;99.90;;;;;;4879335;29;20040;-66
2022/04/08 03:57:09;;;;;;;1.83;0.22;;;7.80;99.90;;;;;;4879065;29;20057;-66
2022/04/08 03:59:40;;;;;;;2.65;0.50;;;7.80;99.90;;;;;;4879202;29;20053;-66
2022/04/08 04:02:07;;;;;;;0.73;0.20;;;7.70;99.90;;;;;;4878877;29;20060;-67
2022/04/08 04:04:34;;;;;;;0.47;0.40;;;7.80;99.90;;;;;;4879253;29;20121;-66
2022/04/08 04:07:02;;;;;;;3.05;0.50;;;7.70;99.90;;;;;;4878650;29;20053;-66
2022/04/08 04:09:29;;;;;;;3.17;0.45;;;7.70;99.90;;;;;;4878468;29;20506;-66
2022/04/08 04:11:56;;;;;;;4.32;0.70;;;7.60;99.90;;;;;;4878489;29;20049;-66
2022/04/08 04:14:23;;;;;;;2.10;0.75;;;7.60;99.90;;;;;;4879213;29;20097;-66
2022/04/08 04:16:49;;;;;;;2.97;0.68;;;7.60;99.90;;;;;;4878524;29;20410;-66
2022/04/08 04:19:17;;;;;;;3.25;0.60;;;7.60;99.90;;;;;;4878386;29;20068;-67
2022/04/08 04:21:44;;;;;;;2.53;0.52;;;7.60;99.90;;;;;;4878310;29;20037;-66
2022/04/08 04:24:12;;;;;;;0.90;0.50;;;7.60;99.90;;;;;;4878729;29;20069;-66
2022/04/08 04:26:38;;;;;;;1.15;0.38;;;7.60;99.90;;;;;;4878598;29;20056;-66
2022/04/08 04:29:05;;;;;;;2.90;0.63;;;7.60;99.90;;;;;;4874204;29;20053;-66
2022/04/08 04:31:32;;;;;;;1.27;0.50;;;7.60;99.90;;;;;;4877779;29;20387;-66
2022/04/08 04:33:59;;;;;;;2.03;0.40;;;7.60;99.90;;;;;;4878315;29;20073;-66
2022/04/08 04:36:25;;;;;;;2.15;1.05;;;7.60;99.90;;;;;;4870164;29;20041;-66
2022/04/08 04:38:52;;;;;;;2.50;0.32;;;7.50;99.90;;;;;;4873722;29;20506;-66
2022/04/08 04:41:20;;;;;;;2.88;0.40;;;7.50;99.90;;;;;;4877899;29;20059;-67
2022/04/08 04:43:46;;;;;;;;;;;7.40;99.90;;;;;;4877921;29;20056;-66
2022/04/08 04:46:13;;;;;;;2.45;0.50;;;7.40;99.90;;;;;;4878107;29;20677;-66
2022/04/08 04:48:40;;;;;;;4.20;0.73;;;7.40;99.90;;;;;;4877995;29;20398;-66
2022/04/08 04:51:07;;;;;;;3.05;0.57;;;7.40;99.90;;;;;;4878206;29;20127;-66
2022/04/08 04:53:33;;;;;;;2.47;0.37;;;7.40;99.90;;;;;;4877765;29;20045;-66
2022/04/08 04:56:00;;;;;;;1.45;0.40;;;7.40;99.90;;;;;;4874747;29;20305;-68
2022/04/08 04:58:27;;;;;;;4.88;0.60;;;7.40;99.90;;;;;;4872596;29;20056;-68
2022/04/08 05:00:53;;;;;;;1.73;0.63;;;7.40;99.90;;;;;;4877582;29;20056;-68
2022/04/08 05:03:20;;;;;;;2.22;0.38;;;7.40;99.90;;;;;;4876710;29;20554;-67
2022/04/08 05:05:47;;;;;;;2.00;0.68;;;7.40;99.90;;;;;;4877256;29;20056;-67
2022/04/08 05:08:15;;;;;;;1.08;0.80;;;7.40;99.90;;;;;;4905703;23;20052;-64
2022/04/08 05:10:41;;;;;;;;;;;7.40;99.90;;;;;;4897410;29;20120;-65
2022/04/08 05:13:08;;;;;;;2.50;0.40;;;7.40;99.90;;;;;;4915468;29;19927;-65
2022/04/08 05:15:38;;;;;;;1.45;0.50;;;7.40;99.90;;;;;;4904534;29;20040;-64
2022/04/08 05:18:05;;;;;;;2.78;0.50;;;7.40;99.90;;;;;;4896608;29;20112;-64
2022/04/08 05:20:32;;;;;;;2.28;0.50;;;7.50;99.90;;;;;;4894532;29;20048;-65
2022/04/08 05:22:59;;;;;;;2.88;0.70;;;7.40;99.90;;;;;;4893127;29;20522;-65
2022/04/08 05:25:26;;;;;;;;;;;7.40;99.90;;;;;;4896986;29;20085;-65
2022/04/08 05:27:54;;;;;;;2.13;0.60;;;7.40;99.90;;;;;;4896370;29;19927;-64
2022/04/08 05:30:22;;;;;;;1.23;0.60;;;7.40;99.90;;;;;;4893334;29;20425;-65
2022/04/08 05:32:49;;;;;;;;;;;7.40;99.90;;;;;;4896764;29;20049;-65
2022/04/08 05:35:17;;;;;;;1.85;0.70;;;7.40;99.90;;;;;;4896589;29;19923;-64
2022/04/08 05:37:48;;;;;;;1.77;0.45;;;7.40;99.90;;;;;;4896667;29;20045;-65
2022/04/08 05:40:16;;;;;;;1.48;0.60;;;7.40;99.90;;;;;;4891211;29;20059;-65
2022/04/08 05:42:45;;;;;;;2.95;0.65;;;7.40;99.90;;;;;;4896375;29;20063;-65
2022/04/08 05:45:13;;;;;;;0.43;0.32;;;7.40;99.90;;;;;;4889787;29;20048;-64
2022/04/08 05:47:40;;;;;;;0.68;0.38;;;7.40;99.90;;;;;;4895240;29;20052;-65
2022/04/08 05:50:08;;;;;;;3.95;0.60;;;7.50;99.90;;;;;;4895309;29;20049;-65
2022/04/08 05:52:34;;;;;;;4.97;0.73;;;7.50;99.90;;;;;;4889538;29;20480;-64
2022/04/08 05:55:01;;;;;;;5.90;0.80;;;7.50;99.90;;;;;;4896085;29;20052;-65
2022/04/08 05:57:33;;;;;;;0.60;0.60;;;7.50;99.90;;;;;;4896527;29;20052;-65
2022/04/08 06:00:00;;;;;;;2.83;0.60;;;7.50;99.90;;;;;;4896000;29;20051;-65
2022/04/08 06:02:29;;;;;;;5.95;0.63;;;7.60;99.90;;;;;;4895614;29;20047;-64
2022/04/08 06:04:56;;;;;;;2.20;0.45;;;7.60;99.90;;;;;;4896208;29;20044;-64
2022/04/08 06:07:24;;;;;;;2.67;0.70;;;7.70;99.90;;;;;;4895792;29;20060;-65
2022/04/08 06:09:52;;;;;;;2.00;0.45;;;7.70;99.90;;;;;;4893362;29;20052;-64
2022/04/08 06:12:18;;;;;;;;;;;7.60;99.90;;;;;;4895333;29;20055;-64
2022/04/08 06:14:45;;;;;;;2.67;1.00;;;7.60;99.90;;;;;;4896322;29;20273;-64
2022/04/08 06:17:12;;;;;;;5.93;0.50;;;7.50;99.90;;;;;;4896098;29;20048;-65
2022/04/08 06:19:39;;;;;;;2.08;0.50;;;7.60;99.90;;;;;;4891635;29;20052;-65
2022/04/08 06:22:05;;;;;;;0.73;0.40;;;7.50;99.90;;;;;;4896135;29;20092;-64
2022/04/08 06:24:32;;;;;;;2.70;0.68;;;7.60;99.90;;;;;;4896173;29;20045;-65
2022/04/08 06:26:59;;;;;;;1.75;0.60;;;7.60;99.90;;;;;;4896156;29;20421;-64
2022/04/08 06:29:25;;;;;;;3.78;0.65;;;7.70;99.90;;;;;;4889449;29;20051;-65
2022/04/08 06:31:52;;;;;;;4.53;0.40;;;7.70;99.90;;;;;;4896007;29;20044;-65
2022/04/08 06:34:19;;;;;;;2.50;0.63;;;7.70;99.90;;;;;;4896015;29;20056;-65
2022/04/08 06:36:46;;;;;;;5.43;0.50;;;7.80;99.90;;;;;;4896013;29;20049;-65
2022/04/08 06:39:13;;;;;;;0.45;0.40;;;7.80;99.90;;;;;;4888250;29;20049;-65
2022/04/08 06:41:40;;;;;;;2.28;0.50;;;7.90;99.90;;;;;;4895581;29;20055;-65
2022/04/08 06:44:06;;;;;;;4.32;0.65;;;8.00;99.90;;;;;;4899746;29;20068;-64
2022/04/08 06:46:33;;;;;;;2.00;0.60;;;8.10;99.90;;;;;;4896659;29;20048;-65
2022/04/08 06:49:02;;;;;;;0.60;0.37;;;8.20;99.90;;;;;;4895854;29;20048;-65
2022/04/08 06:51:30;;;;;;;2.88;0.52;;;8.30;99.90;;;;;;4880164;29;20337;-65
2022/04/08 06:53:57;;;;;;;0.75;0.40;;;8.40;99.90;;;;;;4880798;29;20060;-65
2022/04/08 06:56:24;;;;;;;2.90;0.80;;;8.40;99.90;;;;;;4880528;29;20056;-65
2022/04/08 06:58:51;;;;;;;1.48;0.60;;;8.40;99.90;;;;;;4894559;29;20494;-65
2022/04/08 07:01:17;;;;;;;2.55;0.57;;;8.50;99.90;;;;;;4898836;29;20122;-65
2022/04/08 07:03:44;;;;;;;4.03;0.65;;;8.60;99.90;;;;;;4899050;29;20409;-65
2022/04/08 07:06:11;;;;;;;2.47;0.63;;;8.60;99.90;;;;;;4897250;29;20100;-63
2022/04/08 07:08:38;;;;;;;2.35;0.77;;;8.60;99.90;;;;;;4898887;29;20284;-65
2022/04/08 07:11:04;;;;;;;2.00;0.68;;;8.70;99.90;;;;;;4898743;29;20441;-62
2022/04/08 07:13:31;;;;;;;2.33;0.60;;;8.90;99.90;;;;;;4899097;29;20056;-65
2022/04/08 07:15:58;;;;;;;2.45;0.70;;;9.00;99.90;;;;;;4896266;29;20064;-65
2022/04/08 07:18:24;;;;;;;1.77;0.80;;;9.20;99.90;;;;;;4898444;29;20497;-65
2022/04/08 07:20:51;;;;;;;6.38;0.70;;;9.30;99.90;;;;;;4898750;29;20045;-62
2022/04/08 07:23:18;;;;;;;0.93;0.40;;;9.50;99.90;;;;;;4896899;29;20048;-65
2022/04/08 07:25:45;;;;;;;2.17;0.50;;;9.40;99.90;;;;;;4893292;29;20097;-65
2022/04/08 07:28:12;;;;;;;1.33;0.35;;;9.50;99.90;;;;;;4898579;29;20040;-62
2022/04/08 07:30:39;;;;;;;2.60;0.85;;;9.50;99.90;;;;;;4898306;29;20109;-65
2022/04/08 07:33:05;;;;;;;3.45;0.60;;;9.50;99.90;;;;;;4895823;29;20399;-64
2022/04/08 07:35:33;;;;;;;0.47;0.45;;;9.60;99.90;;;;;;4898743;29;20044;-65
2022/04/08 07:38:00;;;;;;;1.27;0.50;;;9.70;99.90;;;;;;4898330;29;20049;-65
2022/04/08 07:40:27;;;;;;;1.23;0.55;;;9.80;99.90;;;;;;4898656;29;20113;-65
2022/04/08 07:42:54;;;;;;;2.80;0.60;;;9.70;99.90;;;;;;4895117;29;20048;-65
2022/04/08 07:45:24;;;;;;;1.50;0.60;;;9.70;99.90;;;;;;4898265;29;20055;-65
2022/04/08 07:47:51;;;;;;;1.80;0.45;;;9.70;99.90;;;;;;4898770;29;20051;-65
2022/04/08 07:50:18;;;;;;;1.67;0.40;;;9.80;99.90;;;;;;4897897;29;20056;-62
2022/04/08 07:52:45;;;;;;;2.50;0.60;;;9.80;99.90;;;;;;4894343;29;20405;-65
2022/04/08 07:55:12;;;;;;;2.72;0.50;;;9.80;99.90;;;;;;4897534;29;20438;-62
2022/04/08 07:57:46;;;;;;;0.95;0.45;;;9.90;99.90;;;;;;4898170;29;20441;-65
2022/04/08 08:00:14;;;;;;;2.30;0.68;;;9.90;99.90;;;;;;4897865;29;20045;-65
2022/04/08 08:02:42;;;;;;;1.95;0.68;;;10.10;99.90;;;;;;4893368;29;20040;-65
2022/04/08 08:05:10;;;;;;;2.22;0.70;;;10.30;99.90;;;;;;4898161;29;20244;-65
2022/04/08 08:07:52;;;;;;;0.90;0.30;;;10.40;99.90;;;;;;4897915;29;20059;-65
2022/04/08 08:10:24;;;;;;;1.15;0.47;;;10.40;99.90;;;;;;4891136;29;20544;-63
2022/04/08 08:12:52;;;;;;;1.67;0.50;;;10.40;99.90;;;;;;4897918;29;20056;-65
2022/04/08 08:15:21;;;;;;;5.07;0.75;;;10.60;99.90;;;;;;4897753;29;20135;-65
2022/04/08 08:17:48;;;;;;;0.68;0.50;;;10.80;99.90;;;;;;4897908;29;20044;-65
2022/04/08 08:20:16;;;;;;;;;;;10.90;99.90;;;;;;4890283;29;20055;-64
2022/04/08 08:22:44;;;;;;;1.20;0.43;;;11.00;99.90;;;;;;4897519;29;19928;-65
2022/04/08 08:25:12;;;;;;;1.17;0.25;;;11.00;99.90;;;;;;4897767;29;20044;-65
2022/04/08 08:27:51;;;;;;;0.70;0.30;;;11.20;99.90;;;;;;4897492;29;20052;-65
2022/04/08 08:30:18;;;;;;;1.83;0.40;;;11.20;99.90;;;;;;4895831;29;20386;-65
2022/04/08 08:32:46;;;;;;;1.27;0.38;;;11.20;99.90;;;;;;4897582;29;20045;-65
2022/04/08 08:35:17;;;;;;;1.85;0.20;;;11.30;99.90;;;;;;4897496;29;20044;-65
2022/04/08 08:37:44;;;;;;;1.25;0.40;;;11.30;99.90;;;;;;4895491;29;20037;-65
2022/04/08 08:40:12;;;;;;;;;;;11.30;99.90;;;;;;4897323;29;20049;-65
2022/04/08 08:42:40;;;;;;;1.52;0.40;;;11.30;99.90;;;;;;4897236;29;19931;-65
2022/04/08 08:45:09;;;;;;;1.88;0.30;;;11.30;99.90;;;;;;4895976;29;20092;-65
2022/04/08 08:47:37;;;;;;;1.13;0.40;;;11.30;99.90;;;;;;4897237;29;20104;-65
2022/04/08 08:50:05;;;;;;;1.13;0.40;;;11.40;99.90;;;;;;4896914;29;20062;-65
2022/04/08 08:52:32;;;;;;;0.63;0.32;;;11.40;99.90;;;;;;4897221;29;20044;-65
2022/04/08 08:55:02;;;;;;;1.30;0.50;;;11.40;99.90;;;;;;4895460;29;20509;-65
2022/04/08 08:57:29;;;;;;;1.85;0.43;;;11.50;99.90;;;;;;4889554;29;20122;-65
2022/04/08 09:00:06;;;;;;;1.00;0.43;;;11.60;99.90;;;;;;4896831;29;20042;-65
2022/04/08 09:02:34;;;;;;;1.67;0.70;;;11.60;99.90;;;;;;4894029;29;20040;-65
2022/04/08 09:05:13;;;;;;;1.42;0.95;;;11.60;99.90;;;;;;4896694;29;20501;-64
2022/04/08 09:07:40;;;;;;;1.45;0.52;;;11.90;99.90;;;;;;4896904;29;20111;-65
2022/04/08 09:10:07;;;;;;;;;;;12.00;99.90;;;;;;4880336;29;20135;-65
2022/04/08 09:12:34;;;;;;;1.23;0.73;;;12.10;99.90;;;;;;4890774;29;20495;-65
2022/04/08 09:15:02;;;;;;;1.65;0.63;;;12.10;99.90;;;;;;4896564;29;20112;-65
2022/04/08 09:17:29;;;;;;;1.83;0.63;;;12.30;99.90;;;;;;4896699;29;20052;-66
2022/04/08 09:19:59;;;;;;;1.65;0.80;;;12.30;99.90;;;;;;4893398;29;20057;-65
2022/04/08 09:22:28;;;;;;;0.85;0.63;;;12.30;99.90;;;;;;4896481;29;20055;-66
2022/04/08 09:25:12;;;;;;;2.03;0.70;;;12.30;99.90;;;;;;4896607;29;20045;-65
2022/04/08 09:27:40;;;;;;;0.90;0.50;;;12.30;99.90;;;;;;4894011;29;20059;-65
2022/04/08 09:30:08;;;;;;;1.50;0.70;;;12.30;99.90;;;;;;4893625;29;20049;-65
2022/04/08 09:32:36;;;;;;;2.40;0.60;;;12.30;99.90;;;;;;4896767;29;20517;-65
2022/04/08 09:35:04;;;;;;;2.50;0.60;;;12.30;99.90;;;;;;4896686;29;20501;-65
2022/04/08 09:37:31;;;;;;;1.48;0.70;;;12.30;99.90;;;;;;4889296;29;20045;-65
2022/04/08 09:40:00;;;;;;;2.28;0.57;;;12.40;99.90;;;;;;4896020;29;20045;-65
2022/04/08 09:42:44;;;;;;;2.05;0.63;;;12.50;99.90;;;;;;4896456;29;20048;-65
2022/04/08 09:45:12;;;;;;;1.05;0.57;;;12.50;99.90;;;;;;4896503;29;20420;-65
2022/04/08 09:47:40;;;;;;;1.65;0.60;;;12.60;99.90;;;;;;4894280;29;20036;-65
2022/04/08 09:50:10;;;;;;;1.45;0.70;;;12.60;99.90;;;;;;4895970;29;20045;-65
2022/04/08 09:52:39;;;;;;;3.88;0.90;;;12.70;99.90;;;;;;4896377;29;20081;-65
2022/04/08 09:55:08;;;;;;;2.03;0.80;;;12.80;99.90;;;;;;4895556;29;20057;-65
2022/04/08 09:57:39;;;;;;;3.20;0.73;;;12.90;99.90;;;;;;4895966;29;20672;-65
2022/04/08 10:00:07;;;;;;;0.95;0.60;;;13.00;99.90;;;;;;4896215;29;20395;-65
2022/04/08 10:02:40;;;;;;;2.47;0.75;;;13.10;99.90;;;;;;4878953;29;20047;-66
2022/04/08 10:05:09;;;;;;;1.75;0.70;;;13.30;99.90;;;;;;4896038;29;20052;-65
2022/04/08 10:07:37;;;;;;;1.60;0.90;;;13.10;99.90;;;;;;4895969;29;20053;-65
2022/04/08 10:10:20;;;;;;;0.90;0.70;;;13.20;99.90;;;;;;4895742;29;20135;-65
2022/04/08 10:12:59;;;;;;;1.05;0.73;;;13.20;99.90;;;;;;4892756;29;20410;-65
2022/04/08 10:15:39;;;;;;;3.83;1.15;;;13.20;99.90;;;;;;4895978;29;20538;-66
2022/04/08 10:18:07;;;;;;;4.80;0.82;;;13.30;99.90;;;;;;4898644;29;20037;-65
2022/04/08 10:20:35;;;;;;;2.53;0.68;;;13.50;99.90;;;;;;4893608;29;20036;-63
2022/04/08 10:23:08;;;;;;;0.75;0.70;;;13.50;99.90;;;;;;4899620;29;20045;-65
2022/04/08 10:25:37;;;;;;;1.95;0.88;;;13.60;99.90;;;;;;4899834;29;20049;-66
2022/04/08 10:28:05;;;;;;;1.77;0.85;;;13.60;99.90;;;;;;4891970;29;20104;-66
2022/04/08 10:30:36;;;;;;;;;;;13.90;99.90;;;;;;4899684;29;20040;-63
2022/04/08 10:33:07;;;;;;;1.13;0.80;;;13.90;99.90;;;;;;4899625;29;19931;-64
2022/04/08 10:35:35;;;;;;;0.70;0.70;;;13.90;99.90;;;;;;4899734;29;20493;-63
2022/04/08 10:38:07;;;;;;;0.70;0.70;;;13.90;99.90;;;;;;4897743;29;20052;-64
2022/04/08 10:40:37;;;;;;;3.42;0.90;;;13.90;99.90;;;;;;4899198;29;20047;-64
2022/04/08 10:43:05;;;;;;;1.58;0.80;;;14.00;99.90;;;;;;4899600;29;20055;-64
2022/04/08 10:45:32;;;;;;;0.93;0.68;;;14.20;99.90;;;;;;4896295;29;20044;-64
2022/04/08 10:48:00;;;;;;;;;;;14.20;99.90;;;;;;4899772;29;20040;-63
2022/04/08 10:50:29;;;;;;;1.73;0.80;;;14.30;99.90;;;;;;4899130;29;19923;-64
2022/04/08 10:53:13;;;;;;;1.83;1.13;;;14.30;99.90;;;;;;4899597;29;20557;-63
2022/04/08 10:55:52;;;;;;;0.90;0.75;;;14.20;99.90;;;;;;4899080;29;20049;-63
2022/04/08 10:58:30;;;;;;;2.22;0.88;;;14.20;99.90;;;;;;4899046;29;20049;-63
2022/04/08 11:00:57;;;;;;;1.75;0.85;;;14.20;99.90;;;;;;4898958;29;20044;-65
2022/04/08 11:03:28;;;;;;;3.28;0.85;;;14.10;99.90;;;;;;4892162;29;20676;-64
2022/04/08 11:05:56;;;;;;;2.25;0.90;;;14.00;99.90;;;;;;4898894;29;20055;-64
2022/04/08 11:08:26;;;;;;;4.43;1.10;;;14.00;99.90;;;;;;4918883;23;20048;-68
2022/04/08 11:11:00;;;;;;;1.75;0.70;;;13.90;99.90;;;;;;4911493;29;20088;-66
2022/04/08 11:13:26;;;;;;;1.60;1.00;;;14.00;99.90;;;;;;4917617;29;20051;-67
2022/04/08 11:15:59;;;;;;;2.22;0.90;;;14.10;99.90;;;;;;4918131;29;20430;-67
2022/04/08 11:18:26;;;;;;;3.95;0.77;;;14.20;99.90;;;;;;4917038;29;20055;-67
2022/04/08 11:20:53;;;;;;;2.53;0.60;;;14.20;99.90;;;;;;4914818;29;20040;-67
2022/04/08 11:23:36;;;;;;;0.82;0.60;;;14.20;99.90;;;;;;4917585;29;20183;-68
2022/04/08 11:26:11;;;;;;;1.20;0.90;;;14.00;99.90;;;;;;4917602;29;20051;-68
2022/04/08 11:28:37;;;;;;;3.30;1.00;;;13.80;99.90;;;;;;4914816;29;20045;-68
2022/04/08 11:31:24;;;;;;;1.17;0.70;;;13.70;99.90;;;;;;4917077;29;20080;-68
2022/04/08 11:33:51;;;;;;;2.47;0.88;;;13.70;99.90;;;;;;4917601;29;20413;-68
2022/04/08 11:36:23;;;;;;;0.88;0.65;;;13.90;99.90;;;;;;4914424;29;20096;-68
2022/04/08 11:38:49;;;;;;;5.40;0.98;;;14.00;99.90;;;;;;4917163;29;20055;-68
2022/04/08 11:41:32;;;;;;;4.18;1.08;;;14.00;99.90;;;;;;4917337;29;20044;-68
2022/04/08 11:44:01;;;;;;;3.03;0.80;;;14.10;99.90;;;;;;4917279;29;20055;-68
2022/04/08 11:46:28;;;;;;;1.38;0.80;;;14.20;99.90;;;;;;4912347;29;20067;-68
2022/04/08 11:48:55;;;;;;;3.72;0.80;;;14.30;99.90;;;;;;4917131;29;20048;-68
2022/04/08 11:51:23;;;;;;;0.93;0.60;;;14.50;99.90;;;;;;4916760;29;20051;-68
2022/04/08 11:53:52;;;;;;;1.23;0.50;;;14.60;99.90;;;;;;4910621;29;20083;-68
2022/04/08 11:56:25;;;;;;;1.70;0.77;;;14.60;99.90;;;;;;4916941;29;20095;-68
2022/04/08 11:58:55;;;;;;;2.63;0.90;;;14.70;99.90;;;;;;4916954;29;20060;-68
2022/04/08 12:01:23;;;;;;;3.92;0.93;;;14.90;99.90;;;;;;4898209;29;20112;-68
2022/04/08 12:03:52;;;;;;;0.80;0.63;;;14.90;99.90;;;;;;4917113;29;20301;-68
2022/04/08 12:06:19;;;;;;;14.32;1.30;;;14.90;99.90;;;;;;4899949;29;20056;-68
2022/04/08 12:08:48;;;;;;;3.33;1.00;;;14.80;99.90;;;;;;4916698;29;20055;-68
2022/04/08 12:11:15;;;;;;;1.73;1.02;;;14.80;99.90;;;;;;4910258;29;20044;-68
2022/04/08 12:13:43;;;;;;;1.58;0.90;;;14.80;99.90;;;;;;4916648;29;20405;-68
2022/04/08 12:16:13;;;;;;;3.33;1.08;;;14.60;99.90;;;;;;4916689;29;20059;-68
2022/04/08 12:18:54;;;;;;;1.10;0.80;;;14.50;99.90;;;;;;4907799;29;20048;-68
2022/04/08 12:21:43;;;;;;;2.30;1.00;;;14.70;99.90;;;;;;4910316;29;20067;-68
2022/04/08 12:24:10;;;;;;;1.58;0.35;;;14.80;99.90;;;;;;4916685;29;20056;-68
2022/04/08 12:26:39;;;;;;;2.03;0.80;;;14.90;99.90;;;;;;4916272;29;20090;-68
2022/04/08 12:29:15;;;;;;;1.50;0.80;;;15.10;99.90;;;;;;4910111;29;20080;-68
2022/04/08 12:31:59;;;;;;;1.75;0.52;;;15.20;99.90;;;;;;4916155;29;20446;-68
2022/04/08 12:34:26;;;;;;;1.30;0.47;;;15.20;99.90;;;;;;4916535;29;20051;-68
2022/04/08 12:36:53;;;;;;;3.75;0.40;;;15.30;99.90;;;;;;4916615;29;20048;-68
2022/04/08 12:39:20;;;;;;;0.57;0.30;;;15.30;99.90;;;;;;4908426;29;20056;-69
2022/04/08 12:41:47;;;;;;;0.40;0.30;;;15.40;99.90;;;;;;4915837;29;20048;-68
2022/04/08 12:44:15;;;;;;;0.28;0.28;;;15.50;99.90;;;;;;4916350;29;20052;-68
2022/04/08 12:46:42;;;;;;;1.88;0.38;;;15.60;99.90;;;;;;4912730;29;20442;-68
2022/04/08 12:49:08;;;;;;;0.35;0.35;;;15.70;99.90;;;;;;4916000;29;20052;-68
2022/04/08 12:51:35;;;;;;;1.08;0.70;;;15.70;99.90;;;;;;4916012;29;20067;-68
2022/04/08 12:54:03;;;;;;;0.88;0.20;;;15.60;99.90;;;;;;4910992;29;20175;-68
2022/04/08 12:56:29;;;;;;;0.50;0.40;;;15.20;99.90;;;;;;4915975;29;20048;-68
2022/04/08 12:58:57;;;;;;;0.80;0.40;;;15.10;99.90;;;;;;4899006;29;20489;-68
2022/04/08 13:01:25;;;;;;;1.50;0.45;;;15.20;99.90;;;;;;4915611;29;20052;-68
2022/04/08 13:03:52;;;;;;;;;;;15.30;99.90;;;;;;4914307;29;20055;-68